Time;durP1;ratioP1;P1;durP2;ratioP2;P2;SDS_P1;SDS_P2;PMS_P1;PMS_P2;Temp;Humidity;BMP_temperature;BMP_pressure;BME280_temperature;BME280_humidity;BME280_pressure;Samples;Min_cycle;Max_cycle;Signal;HPM_P1;HPM_P2
2024/02/16 00:00:47;;;;;;;3.92;1.40;;;;;;;19.03;53.02;100886.72;4999228;28;20286;-68
2024/02/16 00:03:12;;;;;;;3.35;1.25;;;;;;;18.93;52.83;100875.22;4997510;28;20038;-68
2024/02/16 00:05:38;;;;;;;2.35;1.17;;;;;;;19.03;53.09;100897.28;4999310;28;20088;-69
2024/02/16 00:08:04;;;;;;;4.10;1.38;;;;;;;18.94;52.93;100874.28;4998856;28;20033;-68
2024/02/16 00:10:30;;;;;;;3.35;1.20;;;;;;;18.95;52.95;100884.72;4998766;28;20896;-69
2024/02/16 00:12:55;;;;;;;3.08;1.25;;;;;;;18.88;53.06;100862.41;4999323;28;20034;-68
2024/02/16 00:15:20;;;;;;;4.18;1.30;;;;;;;18.92;53.03;100869.13;4998553;28;20417;-68
2024/02/16 00:17:46;;;;;;;3.78;1.20;;;;;;;19.01;52.90;100891.31;4999011;28;20065;-68
2024/02/16 00:20:14;;;;;;;2.88;1.20;;;;;;;18.96;52.66;100881.13;4981561;28;20398;-69
2024/02/16 00:22:40;;;;;;;4.43;1.40;;;;;;;18.97;52.89;100874.03;4995975;28;20025;-69
2024/02/16 00:25:06;;;;;;;3.20;1.30;;;;;;;18.98;52.83;100878.34;4998780;28;20471;-68
2024/02/16 00:27:31;;;;;;;3.97;1.50;;;;;;;18.92;52.80;100868.31;4998605;28;20037;-69
2024/02/16 00:29:57;;;;;;;4.95;1.50;;;;;;;18.90;52.75;100875.50;4997949;28;20029;-68
2024/02/16 00:32:24;;;;;;;3.20;1.52;;;;;;;18.93;52.88;100884.00;4998350;28;20037;-68
2024/02/16 00:34:52;;;;;;;3.25;1.40;;;;;;;18.95;52.88;100889.16;4998601;28;20034;-69
2024/02/16 00:37:17;;;;;;;5.28;1.55;;;;;;;18.90;52.68;100881.63;4999269;28;20076;-69
2024/02/16 00:39:42;;;;;;;4.07;1.30;;;;;;;18.81;52.60;100862.06;4997100;28;20030;-69
2024/02/16 00:42:08;;;;;;;3.30;1.30;;;;;;;18.89;52.57;100869.38;4998136;28;20130;-68
2024/02/16 00:44:34;;;;;;;3.88;1.23;;;;;;;18.89;52.54;100877.31;4998548;28;20087;-69
2024/02/16 00:47:00;;;;;;;3.17;1.35;;;;;;;18.89;52.85;100879.94;4997120;28;20457;-67
2024/02/16 00:49:25;;;;;;;3.95;1.45;;;;;;;18.79;52.54;100855.25;4998983;28;20272;-68
2024/02/16 00:51:51;;;;;;;3.05;1.17;;;;;;;18.80;52.35;100863.06;5002597;28;21296;-68
2024/02/16 00:54:17;;;;;;;3.47;1.20;;;;;;;18.77;52.61;100851.88;4984930;28;20092;-68
2024/02/16 00:56:43;;;;;;;3.75;1.38;;;;;;;18.90;52.36;100875.50;5002870;28;20491;-68
2024/02/16 00:59:09;;;;;;;3.53;1.30;;;;;;;18.86;52.36;100867.00;5003470;28;20044;-68
2024/02/16 01:01:35;;;;;;;4.00;1.30;;;;;;;18.83;52.41;100862.81;5002035;28;20040;-68
2024/02/16 01:04:01;;;;;;;4.22;1.38;;;;;;;18.82;52.44;100869.03;5001156;28;20026;-68
2024/02/16 01:06:26;;;;;;;3.92;1.50;;;;;;;18.76;52.15;100855.50;5002245;28;20037;-68
2024/02/16 01:08:51;;;;;;;3.58;1.30;;;;;;;18.81;52.26;100862.06;5001829;28;20042;-68
2024/02/16 01:11:17;;;;;;;3.55;1.10;;;;;;;18.77;52.27;100855.38;5002723;28;20038;-69
2024/02/16 01:13:43;;;;;;;3.60;1.23;;;;;;;18.73;52.37;100847.84;5002474;28;20054;-69
2024/02/16 01:16:09;;;;;;;2.85;1.20;;;;;;;18.83;52.13;100860.16;5003063;28;20049;-69
2024/02/16 01:18:37;;;;;;;2.90;1.30;;;;;;;18.78;52.49;100854.41;5002962;28;20049;-69
2024/02/16 01:21:03;;;;;;;3.67;1.52;;;;;;;18.71;52.35;100834.78;4984604;28;20034;-68
2024/02/16 01:23:29;;;;;;;3.55;1.40;;;;;;;18.78;51.85;100848.28;5002174;28;20549;-68
2024/02/16 01:25:54;;;;;;;2.85;1.30;;;;;;;18.80;52.18;100849.00;5002450;28;20026;-69
2024/02/16 01:28:19;;;;;;;3.50;1.40;;;;;;;18.70;52.20;100841.00;5002400;28;20084;-68
2024/02/16 01:30:45;;;;;;;4.20;1.27;;;;;;;18.79;52.25;100858.72;5001474;28;20121;-69
2024/02/16 01:33:10;;;;;;;3.15;1.38;;;;;;;18.67;52.10;100830.72;5002075;28;20088;-69
2024/02/16 01:35:35;;;;;;;3.13;1.40;;;;;;;18.64;52.06;100815.13;4984185;28;20034;-69
2024/02/16 01:38:01;;;;;;;3.13;1.27;;;;;;;18.76;51.95;100845.78;5002318;28;20402;-68
2024/02/16 01:40:27;;;;;;;2.63;1.33;;;;;;;18.76;51.94;100837.88;5002835;28;20428;-69
2024/02/16 01:42:53;;;;;;;2.80;1.20;;;;;;;18.70;51.86;100827.81;5002153;28;20036;-69
2024/02/16 01:45:19;;;;;;;3.95;1.50;;;;;;;18.65;52.03;100817.63;5002247;28;20037;-68
2024/02/16 01:47:47;;;;;;;3.25;1.40;;;;;;;18.65;51.90;100815.00;5001600;28;20033;-68
2024/02/16 01:50:14;;;;;;;4.15;1.50;;;;;;;18.65;51.94;100817.63;5001770;28;20081;-68
2024/02/16 01:52:39;;;;;;;4.10;1.23;;;;;;;18.68;51.75;100833.22;4984485;28;20038;-69
2024/02/16 01:55:08;;;;;;;3.28;1.35;;;;;;;18.59;51.76;100817.31;5001979;28;20510;-68
2024/02/16 01:57:34;;;;;;;4.10;1.40;;;;;;;18.61;51.77;100818.03;5001736;28;20652;-68
2024/02/16 01:59:59;;;;;;;4.30;1.42;;;;;;;18.64;51.62;100834.47;5001786;28;20128;-68
2024/02/16 02:02:25;;;;;;;3.25;1.50;;;;;;;18.57;51.78;100816.63;5000050;28;20037;-68
2024/02/16 02:04:50;;;;;;;4.18;1.23;;;;;;;18.58;51.81;100828.84;5000737;28;20403;-68
2024/02/16 02:07:16;;;;;;;2.80;1.15;;;;;;;18.70;51.63;100837.53;5002544;28;20034;-68
2024/02/16 02:09:42;;;;;;;4.65;1.23;;;;;;;18.57;51.73;100816.63;5000692;28;20041;-69
2024/02/16 02:12:10;;;;;;;3.58;1.30;;;;;;;18.63;51.46;100830.13;5000771;28;20770;-68
2024/02/16 02:14:39;;;;;;;2.65;1.40;;;;;;;18.62;51.78;100822.34;5001229;28;20053;-68
2024/02/16 02:17:04;;;;;;;3.03;1.13;;;;;;;18.53;51.54;100807.28;5001471;28;20034;-68
2024/02/16 02:19:30;;;;;;;2.53;1.20;;;;;;;18.62;51.65;100814.44;5001800;28;20037;-69
2024/02/16 02:21:56;;;;;;;4.82;1.30;;;;;;;18.61;51.59;100812.75;4998145;28;20113;-68
2024/02/16 02:24:22;;;;;;;2.65;1.30;;;;;;;18.65;51.49;100822.09;4999988;28;20036;-68
2024/02/16 02:26:47;;;;;;;3.33;1.33;;;;;;;18.53;51.62;100802.00;5001783;28;20033;-68
2024/02/16 02:29:12;;;;;;;3.97;1.52;;;;;;;18.55;51.61;100806.19;5001422;28;20034;-68
2024/02/16 02:31:37;;;;;;;2.13;1.17;;;;;;;18.63;51.50;100816.13;5001638;28;20038;-68
2024/02/16 02:34:05;;;;;;;3.00;1.20;;;;;;;18.52;51.54;100802.94;5001015;28;20029;-68
2024/02/16 02:36:30;;;;;;;4.55;1.35;;;;;;;18.59;51.58;100806.75;5001071;28;20083;-68
2024/02/16 02:38:56;;;;;;;2.60;1.33;;;;;;;18.56;51.57;100805.22;5000978;28;20037;-69
2024/02/16 02:41:21;;;;;;;3.00;1.20;;;;;;;18.58;51.46;100797.16;5001244;28;20030;-68
2024/02/16 02:43:47;;;;;;;2.97;1.30;;;;;;;18.58;51.43;100808.56;5001280;28;20047;-68
2024/02/16 02:46:16;;;;;;;3.28;1.30;;;;;;;18.58;51.43;100811.22;5000360;28;20034;-68
2024/02/16 02:48:45;;;;;;;2.78;1.30;;;;;;;18.59;51.64;100806.75;5000758;28;20043;-68
2024/02/16 02:51:11;;;;;;;3.90;1.80;;;;;;;18.40;51.59;100775.78;5001472;28;20229;-68
2024/02/16 02:53:36;;;;;;;2.92;1.40;;;;;;;18.51;51.34;100802.13;5000749;28;20476;-69
2024/02/16 02:56:02;;;;;;;3.88;1.42;;;;;;;18.47;51.45;100790.16;5000319;28;20253;-68
2024/02/16 02:58:28;;;;;;;3.00;1.38;;;;;;;18.57;51.18;100796.34;5001213;28;20034;-68
2024/02/16 03:00:54;;;;;;;3.40;1.50;;;;;;;18.48;51.31;100787.41;4999653;28;20040;-68
2024/02/16 03:03:20;;;;;;;4.22;1.45;;;;;;;18.58;51.26;100797.16;4998930;28;20037;-68
2024/02/16 03:05:45;;;;;;;3.22;1.45;;;;;;;18.49;51.08;100780.31;4983123;28;20033;-69
2024/02/16 03:08:10;;;;;;;2.85;1.40;;;;;;;18.49;51.24;100765.31;4999273;28;20091;-68
2024/02/16 03:10:36;;;;;;;3.28;1.38;;;;;;;18.57;51.02;100784.94;4999328;28;20026;-68
2024/02/16 03:13:02;;;;;;;3.08;1.60;;;;;;;18.53;51.06;100784.34;4999341;28;20495;-69
2024/02/16 03:15:29;;;;;;;3.85;1.50;;;;;;;18.44;51.05;100774.59;4999924;28;20528;-68
2024/02/16 03:17:54;;;;;;;2.75;1.38;;;;;;;18.52;51.05;100779.19;4999709;28;20129;-67
2024/02/16 03:20:21;;;;;;;2.97;1.38;;;;;;;18.46;50.95;100759.47;5000343;28;20117;-68
2024/02/16 03:22:46;;;;;;;4.00;1.45;;;;;;;18.42;51.12;100765.94;4999607;28;20025;-68
2024/02/16 03:25:12;;;;;;;2.92;1.35;;;;;;;18.43;50.96;100763.19;4999995;28;20038;-68
2024/02/16 03:27:37;;;;;;;2.60;1.15;;;;;;;18.51;50.86;100767.81;5000371;28;20029;-68
2024/02/16 03:30:03;;;;;;;4.25;1.55;;;;;;;18.41;50.66;100761.66;4999435;28;20042;-68
2024/02/16 03:32:28;;;;;;;3.45;1.70;;;;;;;18.47;50.94;100772.53;4999985;28;20049;-68
2024/02/16 03:34:56;;;;;;;3.20;1.40;;;;;;;18.45;50.95;100763.06;4999416;28;20064;-68
2024/02/16 03:37:21;;;;;;;2.95;1.45;;;;;;;18.40;50.93;100763.44;5000440;28;20048;-68
2024/02/16 03:39:47;;;;;;;2.60;1.20;;;;;;;18.40;51.03;100765.25;5000435;28;20026;-68
2024/02/16 03:42:12;;;;;;;3.35;1.50;;;;;;;18.32;50.80;100755.31;4982341;28;20137;-68
2024/02/16 03:44:37;;;;;;;3.08;1.45;;;;;;;18.43;51.06;100771.09;4999237;28;20408;-68
2024/02/16 03:47:03;;;;;;;3.05;1.60;;;;;;;18.37;51.08;100773.41;4999875;28;20041;-68
2024/02/16 03:49:28;;;;;;;3.60;1.48;;;;;;;18.46;50.91;100783.19;4999950;28;20139;-68
2024/02/16 03:51:53;;;;;;;4.10;1.67;;;;;;;18.34;50.92;100769.25;4999908;28;20036;-68
2024/02/16 03:54:19;;;;;;;4.65;1.42;;;;;;;18.28;50.79;100753.94;5000086;28;21338;-68
2024/02/16 03:56:45;;;;;;;2.50;1.10;;;;;;;18.42;50.66;100782.63;4981707;28;20042;-68
2024/02/16 03:59:10;;;;;;;3.17;1.35;;;;;;;18.42;50.83;100774.72;4981849;28;20468;-68
2024/02/16 04:01:36;;;;;;;4.13;1.40;;;;;;;18.43;50.75;100779.00;4999374;28;20079;-68
2024/02/16 04:04:03;;;;;;;3.50;1.45;;;;;;;18.42;50.79;100784.41;4996788;28;20041;-68
2024/02/16 04:06:28;;;;;;;3.30;1.45;;;;;;;18.40;50.76;100779.25;4999973;28;20064;-69
2024/02/16 04:08:53;;;;;;;3.65;1.30;;;;;;;18.27;50.74;100763.63;4999973;28;20474;-68
2024/02/16 04:11:19;;;;;;;3.47;1.40;;;;;;;18.34;50.81;100769.25;4999093;28;20107;-68
2024/02/16 04:13:44;;;;;;;3.13;1.30;;;;;;;18.33;50.64;100769.38;4999937;28;20029;-68
2024/02/16 04:16:09;;;;;;;3.22;1.58;;;;;;;18.32;50.62;100765.88;4998759;28;20475;-68
2024/02/16 04:18:35;;;;;;;3.15;1.33;;;;;;;18.32;50.80;100763.25;4999649;28;20053;-67
2024/02/16 04:21:00;;;;;;;2.60;1.27;;;;;;;18.38;50.79;100785.66;4999636;28;20037;-68
2024/02/16 04:23:25;;;;;;;3.58;1.35;;;;;;;18.40;50.54;100791.63;4999226;28;20479;-69
2024/02/16 04:25:51;;;;;;;2.90;1.30;;;;;;;18.40;50.71;100789.81;4981520;28;20030;-68
2024/02/16 04:28:18;;;;;;;2.80;1.23;;;;;;;18.34;50.59;100778.94;5000003;28;20823;-68
2024/02/16 04:30:43;;;;;;;3.70;1.63;;;;;;;18.34;50.61;100790.34;4980929;28;20571;-68
2024/02/16 04:33:09;;;;;;;5.18;1.77;;;;;;;18.41;50.67;100793.31;4999636;28;20104;-69
2024/02/16 04:35:34;;;;;;;2.83;1.30;;;;;;;18.38;50.60;100791.75;4999852;28;20061;-68
2024/02/16 04:38:00;;;;;;;5.57;1.50;;;;;;;18.29;50.54;100781.97;4997908;28;20434;-69
2024/02/16 04:40:25;;;;;;;3.25;1.30;;;;;;;18.38;50.76;100796.19;4999016;28;20041;-68
2024/02/16 04:42:50;;;;;;;3.20;1.42;;;;;;;18.38;50.79;100793.56;4999368;28;20077;-68
2024/02/16 04:45:15;;;;;;;4.45;1.50;;;;;;;18.38;50.53;100794.41;4999208;28;20033;-69
2024/02/16 04:47:41;;;;;;;2.63;1.23;;;;;;;18.26;50.55;100782.22;4999031;28;20044;-68
2024/02/16 04:50:09;;;;;;;3.53;1.30;;;;;;;18.25;50.57;100778.75;4999232;28;20282;-68
2024/02/16 04:52:36;;;;;;;3.30;1.42;;;;;;;18.36;50.64;100796.34;4998949;28;20021;-68
2024/02/16 04:55:01;;;;;;;3.50;1.40;;;;;;;18.36;50.63;100798.97;4998613;28;20058;-68
2024/02/16 04:57:26;;;;;;;3.78;1.45;;;;;;;18.29;50.87;100790.72;5000016;28;20491;-69
2024/02/16 04:59:52;;;;;;;3.40;1.50;;;;;;;18.35;50.58;100802.56;4998103;28;20040;-69
2024/02/16 05:02:17;;;;;;;3.33;1.17;;;;;;;18.35;50.35;100799.91;4980203;28;20088;-68
2024/02/16 05:04:42;;;;;;;2.95;1.38;;;;;;;18.21;50.50;100784.41;4998598;28;20034;-68
2024/02/16 05:07:07;;;;;;;2.88;1.30;;;;;;;18.33;50.61;100799.22;4998627;28;20084;-68
2024/02/16 05:09:33;;;;;;;2.22;1.20;;;;;;;18.29;50.18;100793.38;4998900;28;20544;-68
2024/02/16 05:11:58;;;;;;;3.53;1.45;;;;;;;18.34;50.65;100800.91;4999209;28;20048;-68
2024/02/16 05:14:23;;;;;;;2.95;1.50;;;;;;;18.30;50.45;100804.75;4996968;28;20040;-69
2024/02/16 05:16:50;;;;;;;2.97;1.30;;;;;;;18.33;50.78;100798.41;4999396;28;20097;-68
2024/02/16 05:19:15;;;;;;;4.10;1.60;;;;;;;18.33;50.63;100801.84;4998523;28;20030;-68
2024/02/16 05:21:41;;;;;;;2.92;1.50;;;;;;;18.27;50.49;100790.00;4998069;28;20075;-68
2024/02/16 05:24:06;;;;;;;4.57;1.20;;;;;;;18.34;50.48;100800.06;4997569;28;20418;-69
2024/02/16 05:26:31;;;;;;;2.85;1.20;;;;;;;18.24;50.63;100778.88;4998312;28;20487;-68
2024/02/16 05:28:57;;;;;;;3.03;1.50;;;;;;;18.23;50.59;100772.78;4998130;28;20029;-68
2024/02/16 05:31:22;;;;;;;3.03;1.30;;;;;;;18.29;50.64;100797.78;4998805;28;20034;-68
2024/02/16 05:33:52;;;;;;;5.07;1.50;;;;;;;18.21;50.70;100776.47;4998318;28;20121;-68
2024/02/16 05:36:24;;;;;;;3.78;1.38;;;;;;;18.20;50.56;100783.56;5001209;28;20037;-68
2024/02/16 05:38:50;;;;;;;3.47;1.50;;;;;;;18.23;50.71;100783.31;5002457;28;20037;-68
2024/02/16 05:41:17;;;;;;;3.42;1.30;;;;;;;18.23;50.56;100785.09;5001533;28;20506;-68
2024/02/16 05:43:44;;;;;;;2.58;1.27;;;;;;;18.24;50.59;100786.78;5002216;28;20037;-69
2024/02/16 05:46:15;;;;;;;2.83;1.40;;;;;;;18.29;50.67;100788.09;5002337;28;20029;-68
2024/02/16 05:48:41;;;;;;;4.35;1.33;;;;;;;18.23;50.58;100791.22;5001964;28;20038;-68
2024/02/16 05:51:07;;;;;;;3.35;1.40;;;;;;;18.17;50.56;100780.34;4984228;28;20037;-68
2024/02/16 05:53:33;;;;;;;3.28;1.27;;;;;;;18.20;50.68;100793.25;5002494;28;20030;-68
2024/02/16 05:55:58;;;;;;;6.13;1.55;;;;;;;18.28;50.59;100807.50;5001501;28;20038;-68
2024/02/16 05:58:25;;;;;;;3.03;1.40;;;;;;;18.23;50.77;100803.56;5001219;28;20141;-68
2024/02/16 06:00:51;;;;;;;3.80;1.40;;;;;;;18.20;50.60;100798.53;5001785;28;20121;-69
2024/02/16 06:03:16;;;;;;;3.13;1.35;;;;;;;18.30;50.71;100829.31;5000081;28;20092;-69
2024/02/16 06:05:44;;;;;;;2.67;1.33;;;;;;;18.17;50.49;100812.84;5001724;28;20462;-69
2024/02/16 06:08:10;;;;;;;2.65;1.27;;;;;;;18.14;50.64;100815.72;5001600;28;20398;-68
2024/02/16 06:10:35;;;;;;;2.58;1.30;;;;;;;18.17;50.26;100823.38;5001041;28;20116;-69
2024/02/16 06:13:01;;;;;;;4.20;1.63;;;;;;;18.16;50.40;100812.97;4998728;28;20760;-69
2024/02/16 06:15:26;;;;;;;3.30;1.50;;;;;;;18.28;50.79;100835.72;5000845;28;20073;-68
2024/02/16 06:17:52;;;;;;;3.25;1.45;;;;;;;18.23;50.64;100835.22;4999831;28;20042;-69
2024/02/16 06:20:18;;;;;;;4.25;1.52;;;;;;;18.16;50.68;100829.63;5001586;28;20550;-69
2024/02/16 06:22:43;;;;;;;3.58;1.35;;;;;;;18.19;50.61;100839.09;4983576;28;20034;-69
2024/02/16 06:25:09;;;;;;;3.15;1.50;;;;;;;18.19;50.92;100828.53;4983243;28;20411;-69
2024/02/16 06:27:34;;;;;;;2.78;1.40;;;;;;;18.28;50.46;100844.44;5001609;28;20037;-68
2024/02/16 06:30:00;;;;;;;4.82;1.65;;;;;;;18.12;50.55;100821.13;4999613;28;20037;-69
2024/02/16 06:32:26;;;;;;;3.88;1.70;;;;;;;18.12;50.49;100810.56;4983720;28;20042;-68
2024/02/16 06:34:53;;;;;;;2.90;1.30;;;;;;;18.26;50.83;100840.25;5001128;28;20035;-68
2024/02/16 06:37:18;;;;;;;3.20;1.30;;;;;;;18.24;50.71;100831.63;5000150;28;20149;-69
2024/02/16 06:39:43;;;;;;;2.90;1.30;;;;;;;18.27;50.79;100839.28;5000406;28;20052;-68
2024/02/16 06:42:11;;;;;;;3.42;1.40;;;;;;;18.30;50.95;100845.16;5000209;28;20038;-68
2024/02/16 06:44:36;;;;;;;2.30;1.20;;;;;;;18.35;50.90;100857.13;5000728;28;20408;-69
2024/02/16 06:47:01;;;;;;;3.22;1.50;;;;;;;18.27;50.85;100839.28;4998946;28;20042;-69
2024/02/16 06:49:26;;;;;;;3.45;1.30;;;;;;;18.40;50.95;100866.34;5000753;28;20030;-69
2024/02/16 06:51:52;;;;;;;3.50;1.55;;;;;;;18.32;51.07;100858.22;5000188;28;20175;-69
2024/02/16 06:54:17;;;;;;;3.70;1.35;;;;;;;18.39;51.27;100877.88;5000949;28;20034;-69
2024/02/16 06:56:43;;;;;;;3.70;1.40;;;;;;;18.38;51.03;100862.16;5000682;28;20415;-69
2024/02/16 06:59:09;;;;;;;3.13;1.40;;;;;;;18.41;51.08;100875.13;5000609;28;20034;-69
2024/02/16 07:01:34;;;;;;;2.83;1.20;;;;;;;18.45;51.16;100882.66;5001137;28;20033;-70
2024/02/16 07:04:01;;;;;;;3.50;1.40;;;;;;;18.47;50.94;100890.44;4999082;28;20038;-69
2024/02/16 07:06:27;;;;;;;2.47;1.10;;;;;;;18.49;51.15;100894.63;5000432;28;20034;-69
2024/02/16 07:08:52;;;;;;;3.65;1.30;;;;;;;18.39;51.11;100877.88;4999552;28;20423;-69
2024/02/16 07:11:18;;;;;;;3.78;1.40;;;;;;;18.37;50.88;100879.78;4999990;28;20068;-70
2024/02/16 07:13:43;;;;;;;2.30;1.15;;;;;;;18.40;51.24;100883.97;4999623;28;20168;-70
2024/02/16 07:16:09;;;;;;;2.80;1.20;;;;;;;18.36;51.15;100883.41;4983051;28;20137;-69
2024/02/16 07:18:34;;;;;;;4.90;1.50;;;;;;;18.52;51.10;100905.88;5000537;28;20037;-69
2024/02/16 07:21:00;;;;;;;2.75;1.15;;;;;;;18.45;51.27;100897.63;4999450;28;20497;-69
2024/02/16 07:23:25;;;;;;;2.60;1.13;;;;;;;18.39;51.06;100898.97;4999763;28;20450;-69
2024/02/16 07:25:51;;;;;;;3.17;1.10;;;;;;;18.55;50.83;100924.09;4999919;28;20030;-69
2024/02/16 07:28:16;;;;;;;2.78;1.10;;;;;;;18.54;50.89;100919.81;4999523;28;20042;-69
2024/02/16 07:30:41;;;;;;;3.33;1.25;;;;;;;18.53;50.94;100932.13;5000751;28;20033;-69
2024/02/16 07:33:07;;;;;;;3.13;1.25;;;;;;;18.48;50.90;100927.25;4999879;28;20026;-69
2024/02/16 07:35:35;;;;;;;2.90;1.30;;;;;;;18.48;50.93;100919.34;4999737;28;20411;-69
2024/02/16 07:38:00;;;;;;;4.13;1.50;;;;;;;18.49;51.02;100925.47;4999746;28;20113;-69
2024/02/16 07:40:26;;;;;;;3.45;1.48;;;;;;;18.39;50.74;100914.81;4998324;28;20044;-69
2024/02/16 07:42:51;;;;;;;2.75;1.23;;;;;;;18.48;51.08;100929.91;4978877;28;20062;-72
2024/02/16 07:45:16;;;;;;;3.30;1.40;;;;;;;18.58;50.93;100943.19;4981982;28;20037;-71
2024/02/16 07:47:42;;;;;;;3.55;1.40;;;;;;;18.55;51.21;100940.78;4998798;28;20370;-69
2024/02/16 07:50:08;;;;;;;2.78;1.27;;;;;;;18.60;51.37;100948.34;4999572;28;20037;-70
2024/02/16 07:52:33;;;;;;;3.20;1.40;;;;;;;18.50;51.35;100929.78;4997596;28;20034;-69
2024/02/16 07:54:59;;;;;;;3.50;1.40;;;;;;;18.51;51.20;100942.00;4998998;28;20406;-70
2024/02/16 07:57:24;;;;;;;4.65;1.40;;;;;;;18.58;51.44;100944.97;4978089;28;20034;-71
2024/02/16 07:59:50;;;;;;;2.97;1.27;;;;;;;18.51;51.17;100927.97;4998737;28;20061;-70
2024/02/16 08:02:15;;;;;;;2.95;1.40;;;;;;;18.51;51.43;100927.97;4996872;28;20033;-70
2024/02/16 08:04:41;;;;;;;2.67;1.15;;;;;;;18.47;51.39;100928.22;4998321;28;20096;-71
2024/02/16 08:07:07;;;;;;;3.42;1.40;;;;;;;18.49;51.48;100933.38;4982326;28;20120;-73
2024/02/16 08:09:33;;;;;;;2.95;1.35;;;;;;;18.60;51.82;100951.81;4999157;28;20117;-70
2024/02/16 08:11:59;;;;;;;2.85;1.40;;;;;;;18.54;51.53;100944.38;4999512;28;20250;-71
2024/02/16 08:14:25;;;;;;;4.13;1.40;;;;;;;18.60;51.71;100953.63;4981800;28;20034;-70
2024/02/16 08:16:50;;;;;;;3.15;1.30;;;;;;;18.64;51.95;100968.22;4997657;28;20057;-70
2024/02/16 08:19:15;;;;;;;3.28;1.30;;;;;;;18.53;51.88;100955.06;4999604;28;20033;-69
2024/02/16 08:21:41;;;;;;;4.05;1.23;;;;;;;18.54;51.91;100959.41;4981917;28;20041;-70
2024/02/16 08:24:06;;;;;;;3.28;1.30;;;;;;;18.59;52.19;100975.69;4980399;28;20029;-70
2024/02/16 08:26:32;;;;;;;4.07;1.45;;;;;;;18.65;52.21;100993.66;4998452;28;20049;-71
2024/02/16 08:28:57;;;;;;;3.92;1.50;;;;;;;18.54;52.16;100980.50;4998139;28;20037;-70
2024/02/16 08:31:22;;;;;;;3.50;1.38;;;;;;;18.61;52.40;100989.59;4997703;28;20041;-70
2024/02/16 08:33:47;;;;;;;2.97;1.30;;;;;;;18.57;52.17;100993.47;4999437;28;21071;-69
2024/02/16 08:36:14;;;;;;;3.40;1.38;;;;;;;18.63;52.27;101001.72;4999318;28;20282;-70
2024/02/16 08:38:39;;;;;;;3.53;1.40;;;;;;;18.56;52.29;100994.41;4998875;28;20034;-70
2024/02/16 08:41:05;;;;;;;3.70;1.45;;;;;;;18.65;52.61;101014.78;4979940;28;20038;-69
2024/02/16 08:43:30;;;;;;;4.63;1.52;;;;;;;18.65;52.51;101012.97;4998857;28;20482;-70
2024/02/16 08:45:56;;;;;;;4.10;1.53;;;;;;;18.60;52.62;101009.88;4981225;28;20030;-69
2024/02/16 08:48:21;;;;;;;4.75;1.80;;;;;;;18.55;52.67;101000.63;4998626;28;20629;-70
2024/02/16 08:50:47;;;;;;;3.10;1.55;;;;;;;18.64;52.65;101021.88;4998846;28;20061;-70
2024/02/16 08:53:13;;;;;;;4.93;1.60;;;;;;;18.58;52.63;101009.16;4999379;28;20373;-69
2024/02/16 08:55:39;;;;;;;4.03;1.58;;;;;;;18.57;52.65;101011.94;4999383;28;20385;-70
2024/02/16 08:58:07;;;;;;;4.93;1.90;;;;;;;18.68;53.08;101028.56;4998791;28;20417;-70
2024/02/16 09:00:32;;;;;;;4.78;1.40;;;;;;;18.65;52.66;101025.34;4998943;28;20099;-70
2024/02/16 09:02:58;;;;;;;3.53;1.50;;;;;;;18.62;52.93;101026.41;4997074;28;20581;-70
2024/02/16 09:05:23;;;;;;;4.25;1.60;;;;;;;18.57;52.80;101017.22;4998479;28;20573;-69
2024/02/16 09:07:49;;;;;;;4.35;1.48;;;;;;;18.62;52.84;101028.22;4999382;28;20034;-68
2024/02/16 09:10:14;;;;;;;4.67;1.70;;;;;;;18.65;52.50;101038.53;4983359;28;20025;-70
2024/02/16 09:12:40;;;;;;;2.92;1.30;;;;;;;18.70;53.06;101051.38;5002086;28;20283;-71
2024/02/16 09:15:06;;;;;;;3.60;1.70;;;;;;;18.63;52.88;101043.94;4995904;28;20054;-71
2024/02/16 09:17:31;;;;;;;4.72;1.73;;;;;;;18.60;53.25;101038.09;4997863;28;20034;-70
2024/02/16 09:19:57;;;;;;;5.30;1.80;;;;;;;18.68;53.27;101052.34;4999006;28;20131;-70
2024/02/16 09:22:22;;;;;;;5.50;1.98;;;;;;;18.63;53.07;101051.88;4984131;28;20065;-68
2024/02/16 09:24:48;;;;;;;4.68;1.50;;;;;;;18.55;53.16;101041.09;4999378;28;20054;-75
2024/02/16 09:27:13;;;;;;;4.25;1.70;;;;;;;18.72;53.11;101060.00;4999009;28;20484;-75
2024/02/16 09:29:39;;;;;;;4.15;1.60;;;;;;;18.59;53.11;101047.78;5001911;28;20534;-75
2024/02/16 09:32:05;;;;;;;2.92;1.60;;;;;;;18.76;53.14;101070.19;5001735;28;20037;-73
2024/02/16 09:34:30;;;;;;;4.65;1.75;;;;;;;18.75;53.12;101072.97;5001400;28;20399;-73
2024/02/16 09:36:56;;;;;;;5.55;1.70;;;;;;;18.77;53.15;101081.59;5001257;28;20775;-73
2024/02/16 09:39:21;;;;;;;4.55;1.88;;;;;;;18.74;53.13;101085.34;4998698;28;20631;-72
2024/02/16 09:41:50;;;;;;;3.53;1.77;;;;;;;18.63;52.88;101062.44;4999782;28;20221;-72
2024/02/16 09:44:16;;;;;;;4.30;1.80;;;;;;;18.67;53.22;101071.78;5001566;28;20775;-73
2024/02/16 09:46:42;;;;;;;6.03;2.00;;;;;;;18.68;53.25;101077.91;5001050;28;20049;-73
2024/02/16 09:49:07;;;;;;;4.15;1.77;;;;;;;18.72;53.29;101089.88;5000217;28;20034;-71
2024/02/16 09:51:36;;;;;;;6.38;1.90;;;;;;;18.75;53.41;101100.19;4983882;28;20551;-69
2024/02/16 09:54:03;;;;;;;4.20;1.85;;;;;;;18.70;53.32;101086.53;4999425;28;20483;-70
2024/02/16 09:56:28;;;;;;;4.85;1.88;;;;;;;18.70;53.21;101088.34;5000987;28;20040;-72
2024/02/16 09:58:54;;;;;;;3.63;1.65;;;;;;;18.82;53.33;101119.88;4999424;28;20033;-72
2024/02/16 10:01:21;;;;;;;4.05;1.90;;;;;;;18.75;53.64;101109.94;4997390;28;20520;-70
2024/02/16 10:03:46;;;;;;;4.75;1.90;;;;;;;18.81;53.33;101125.28;4997422;28;20403;-72
2024/02/16 10:06:13;;;;;;;4.07;1.75;;;;;;;18.83;53.48;101134.78;5001083;28;20030;-72
2024/02/16 10:08:51;;;;;;;4.57;1.88;;;;;;;18.87;53.46;101138.03;5000322;28;20053;-74
2024/02/16 10:11:18;;;;;;;5.78;1.65;;;;;;;18.85;53.38;101132.88;5000787;28;20074;-72
2024/02/16 10:13:59;;;;;;;5.38;1.90;;;;;;;18.82;53.58;101133.09;5000840;28;20041;-74
2024/02/16 10:16:27;;;;;;;4.18;1.70;;;;;;;18.70;53.73;101123.50;4999705;28;20177;-74
2024/02/16 10:18:56;;;;;;;5.50;1.80;;;;;;;18.81;53.70;101143.75;4983097;28;20052;-70
2024/02/16 10:21:29;;;;;;;4.35;1.85;;;;;;;18.71;53.74;101135.75;5000215;28;20026;-73
2024/02/16 10:24:08;;;;;;;5.90;2.20;;;;;;;18.89;53.69;101156.41;4999982;28;20026;-73
2024/02/16 10:26:37;;;;;;;4.72;1.70;;;;;;;18.85;53.77;101158.44;4999987;28;20049;-74
2024/02/16 10:29:03;;;;;;;5.53;1.92;;;;;;;18.79;54.08;101154.44;4999183;28;20034;-72
2024/02/16 10:31:31;;;;;;;5.63;1.67;;;;;;;18.83;53.90;101160.31;5000799;28;20086;-74
2024/02/16 10:34:05;;;;;;;5.97;2.22;;;;;;;18.83;53.98;101171.75;4982842;28;20037;-74
2024/02/16 10:36:30;;;;;;;;;;;;;;;18.88;54.04;101181.94;4999435;28;20034;-76
2024/02/16 10:38:57;;;;;;;3.83;1.90;;;;;;;18.79;53.91;101174.75;4998924;28;19913;-76
2024/02/16 10:41:27;;;;;;;4.72;2.00;;;;;;;18.83;54.01;101190.22;4999874;28;20091;-69
2024/02/16 10:43:54;;;;;;;4.40;1.83;;;;;;;18.80;53.89;101187.81;4999255;28;20026;-69
2024/02/16 10:46:20;;;;;;;4.50;1.98;;;;;;;18.78;53.85;101181.81;5000411;28;20132;-71
2024/02/16 10:48:45;;;;;;;4.75;1.77;;;;;;;18.77;54.03;101188.06;4998867;28;20116;-73
2024/02/16 10:51:11;;;;;;;5.88;2.15;;;;;;;18.90;54.03;101203.81;4999113;28;20042;-72
2024/02/16 10:53:37;;;;;;;5.78;2.08;;;;;;;18.91;54.20;101209.91;4999650;28;20107;-73
2024/02/16 10:56:03;;;;;;;4.63;2.20;;;;;;;18.77;54.13;101187.19;4999893;28;20184;-72
2024/02/16 10:58:29;;;;;;;4.47;2.00;;;;;;;18.90;54.00;101224.06;4998924;28;20029;-75
2024/02/16 11:00:56;;;;;;;6.82;2.15;;;;;;;18.76;54.19;101196.09;4999173;28;20121;-71
2024/02/16 11:03:26;;;;;;;3.72;1.75;;;;;;;18.77;53.83;101203.91;4993534;28;20586;-74
2024/02/16 11:05:52;;;;;;;5.32;2.10;;;;;;;18.90;54.29;101230.22;4995895;28;20029;-73
2024/02/16 11:08:26;;;;;;;5.38;2.20;;;;;;;18.86;53.91;101220.84;4999275;28;20472;-75
2024/02/16 11:11:04;;;;;;;7.32;2.03;;;;;;;18.80;54.17;101208.94;4999118;28;20026;-73
2024/02/16 11:13:34;;;;;;;4.13;1.77;;;;;;;18.77;54.27;101213.59;4998312;28;20045;-70
2024/02/16 11:16:06;;;;;;;5.53;1.77;;;;;;;18.78;53.89;101221.41;4998479;28;20400;-74
2024/02/16 11:18:36;;;;;;;4.75;2.17;;;;;;;18.91;54.04;101238.97;4999202;28;20073;-75